createdAt,value
2018-01-21T00:02:25.065Z,100741.81
2018-01-21T00:04:53.757Z,100750.25
2018-01-21T00:07:22.047Z,100751.92
2018-01-21T00:09:50.340Z,100752.98
2018-01-21T00:12:18.653Z,100754.58
2018-01-21T00:14:47.716Z,100761.67
2018-01-21T00:17:15.995Z,100772.31
2018-01-21T00:19:44.305Z,100784.38
2018-01-21T00:22:31.001Z,100787.27
2018-01-21T00:25:00.069Z,100792.81
2018-01-21T00:27:28.365Z,100795.34
2018-01-21T00:29:56.650Z,100802.28
2018-01-21T00:32:25.711Z,100799.56
2018-01-21T00:34:54.772Z,100804.51
2018-01-21T00:37:23.820Z,100819.63
2018-01-21T00:39:52.165Z,100817.48
2018-01-21T00:42:20.464Z,100821.19
2018-01-21T00:44:48.767Z,100831.52
2018-01-21T00:47:17.055Z,100834.83
2018-01-21T00:49:45.349Z,100842.94
2018-01-21T00:52:13.671Z,100851.38
2018-01-21T00:54:41.971Z,100863.00
2018-01-21T00:57:10.258Z,100865.25
2018-01-21T00:59:38.615Z,100870.72
2018-01-21T01:02:06.914Z,100869.32
2018-01-21T01:04:35.210Z,100878.82
2018-01-21T01:07:03.513Z,100887.91
2018-01-21T01:09:31.802Z,100884.18
2018-01-21T01:12:00.101Z,100887.67
2018-01-21T01:14:29.150Z,100895.45
2018-01-21T01:16:57.490Z,100898.50
2018-01-21T01:19:25.787Z,100907.91
2018-01-21T01:21:54.266Z,100910.55
2018-01-21T01:24:22.556Z,100911.30
2018-01-21T01:26:50.851Z,100920.31
2018-01-21T01:29:19.183Z,100920.42
2018-01-21T01:31:48.256Z,100924.05
2018-01-21T01:34:16.576Z,100929.41
2018-01-21T01:36:44.888Z,100934.70
2018-01-21T01:39:13.200Z,100938.73
2018-01-21T01:41:41.515Z,100950.62
2018-01-21T01:44:10.599Z,100957.23
2018-01-21T01:46:39.726Z,100951.95
2018-01-21T01:49:08.062Z,100960.14
2018-01-21T01:51:36.400Z,100971.95
2018-01-21T01:54:04.710Z,100964.93
2018-01-21T01:56:33.033Z,100977.47
2018-01-21T01:59:01.349Z,100986.37
2018-01-21T02:01:29.660Z,100989.44
2018-01-21T02:03:57.970Z,101001.25
2018-01-21T02:06:26.596Z,101001.09
2018-01-21T02:08:54.892Z,101010.34
2018-01-21T02:11:23.204Z,101011.66
2018-01-21T02:13:51.508Z,101017.26
2018-01-21T02:16:20.628Z,101018.58
2018-01-21T02:18:48.929Z,101011.97
2018-01-21T02:21:17.233Z,101019.90
2018-01-21T02:23:45.531Z,101015.37
2018-01-21T02:26:13.836Z,101031.83
2018-01-21T02:28:42.903Z,101021.59
2018-01-21T02:31:11.274Z,101032.95
2018-01-21T02:33:39.592Z,101049.90
2018-01-21T02:36:07.897Z,101045.19
2018-01-21T02:38:36.193Z,101047.83
2018-01-21T02:41:04.488Z,101057.41
2018-01-21T02:43:32.792Z,101057.08
2018-01-21T02:46:01.104Z,101065.53
2018-01-21T02:48:30.185Z,101067.50
2018-01-21T02:50:58.494Z,101074.26
2018-01-21T02:53:26.830Z,101079.47
2018-01-21T02:55:55.138Z,101081.25
2018-01-21T02:58:23.460Z,101076.19
2018-01-21T03:00:51.778Z,101089.06
2018-01-21T03:03:20.154Z,101084.76
2018-01-21T03:05:49.242Z,101089.21
2018-01-21T03:08:17.556Z,101092.77
2018-01-21T03:10:45.912Z,101101.59
2018-01-21T03:13:14.234Z,101103.41
2018-01-21T03:15:43.298Z,101101.33
2018-01-21T03:18:11.594Z,101111.83
2018-01-21T03:20:40.004Z,101110.58
2018-01-21T03:23:08.324Z,101115.56
2018-01-21T03:25:36.634Z,101120.36
2018-01-21T03:28:04.939Z,101131.08
2018-01-21T03:30:33.250Z,101128.02
2018-01-21T03:33:01.554Z,101125.59
2018-01-21T03:35:29.999Z,101136.66
2018-01-21T03:37:59.058Z,101140.50
2018-01-21T03:40:27.344Z,101136.95
2018-01-21T03:42:55.656Z,101142.05
2018-01-21T03:45:24.730Z,101150.55
2018-01-21T03:47:53.892Z,101160.77
2018-01-21T03:50:22.178Z,101153.02
2018-01-21T03:52:50.754Z,101155.33
2018-01-21T03:55:19.042Z,101156.23
2018-01-21T03:57:47.329Z,101162.57
2018-01-21T04:00:15.659Z,101168.13
2018-01-21T04:02:44.731Z,101181.53
2018-01-21T04:05:13.034Z,101182.14
2018-01-21T04:07:41.346Z,101181.31
2018-01-21T04:10:09.642Z,101190.34
2018-01-21T04:12:37.934Z,101196.95
2018-01-21T04:15:06.223Z,101194.50
2018-01-21T04:17:34.510Z,101201.86
2018-01-21T04:20:02.807Z,101212.16
2018-01-21T04:22:31.116Z,101208.84
2018-01-21T04:25:00.170Z,101215.39
2018-01-21T04:27:28.480Z,101204.52
2018-01-21T04:29:56.780Z,101215.13
2018-01-21T04:32:25.858Z,101218.39
2018-01-21T04:34:54.170Z,101219.56
2018-01-21T04:37:23.902Z,101224.77
2018-01-21T04:39:53.066Z,101229.23
2018-01-21T04:42:22.151Z,101235.98
2018-01-21T04:44:50.469Z,101231.69
2018-01-21T04:47:18.894Z,101238.08
2018-01-21T04:49:47.194Z,101242.23
2018-01-21T04:52:15.517Z,101250.58
2018-01-21T04:54:44.594Z,101245.98
2018-01-21T04:57:12.869Z,101253.08
2018-01-21T04:59:41.950Z,101264.22
2018-01-21T05:02:10.236Z,101272.70
2018-01-21T05:04:39.223Z,101269.91
2018-01-21T05:07:07.552Z,101269.58
2018-01-21T05:09:35.864Z,101277.43
2018-01-21T05:12:04.172Z,101277.16
2018-01-21T05:14:32.465Z,101280.03
2018-01-21T05:17:00.767Z,101287.05
2018-01-21T05:19:29.824Z,101284.66
2018-01-21T05:21:58.143Z,101292.81
2018-01-21T05:24:27.236Z,101295.33
2018-01-21T05:26:55.603Z,101304.73
2018-01-21T05:29:23.911Z,101312.24
2018-01-21T05:31:52.975Z,101307.66
2018-01-21T05:34:21.321Z,101311.05
2018-01-21T05:36:49.636Z,101316.83
2018-01-21T05:39:17.944Z,101320.93
2018-01-21T05:41:46.261Z,101322.81
2018-01-21T05:44:14.586Z,101323.16
2018-01-21T05:46:42.899Z,101326.84
2018-01-21T05:49:11.964Z,101334.63
2018-01-21T05:51:40.269Z,101336.78
2018-01-21T05:54:08.566Z,101341.39
2018-01-21T05:56:37.673Z,101346.47
2018-01-21T05:59:06.728Z,101359.06
2018-01-21T06:01:35.020Z,101352.60
2018-01-21T06:04:03.322Z,101358.80
2018-01-21T06:06:32.382Z,101364.74
2018-01-21T06:09:00.691Z,101374.13
2018-01-21T06:11:28.995Z,101372.61
2018-01-21T06:13:57.312Z,101373.09
2018-01-21T06:16:25.605Z,101385.75
2018-01-21T06:18:53.916Z,101387.41
2018-01-21T06:21:22.217Z,101395.06
2018-01-21T06:23:51.296Z,101391.17
2018-01-21T06:26:19.610Z,101400.84
2018-01-21T06:28:47.932Z,101402.58
2018-01-21T06:31:16.253Z,101415.72
2018-01-21T06:33:44.664Z,101423.30
2018-01-21T06:36:12.982Z,101425.32
2018-01-21T06:38:41.281Z,101429.77
2018-01-21T06:41:09.598Z,101442.00
2018-01-21T06:43:37.918Z,101448.13
2018-01-21T06:46:06.216Z,101454.59
2018-01-21T06:48:34.539Z,101460.43
2018-01-21T06:51:02.852Z,101456.39
2018-01-21T06:53:31.149Z,101462.02
2018-01-21T06:55:59.473Z,101459.52
2018-01-21T06:58:28.999Z,101472.28
2018-01-21T07:00:57.357Z,101470.81
2018-01-21T07:03:25.624Z,101476.86
2018-01-21T07:05:53.936Z,101482.91
2018-01-21T07:08:22.236Z,101479.92
2018-01-21T07:10:50.533Z,101482.70
2018-01-21T07:13:18.832Z,101482.84
2018-01-21T07:15:47.135Z,101485.84
2018-01-21T07:18:16.247Z,101489.66
2018-01-21T07:20:45.305Z,101498.34
2018-01-21T07:23:13.613Z,101502.38
2018-01-21T07:25:41.944Z,101505.05
2018-01-21T07:28:10.246Z,101505.61
2018-01-21T07:30:38.553Z,101517.43
2018-01-21T07:33:07.103Z,101520.22
2018-01-21T07:35:35.407Z,101528.84
2018-01-21T07:38:03.703Z,101531.87
2018-01-21T07:40:32.117Z,101528.53
2018-01-21T07:43:00.422Z,101526.94
2018-01-21T07:45:28.813Z,101530.27
2018-01-21T07:47:57.179Z,101537.09
2018-01-21T07:50:25.469Z,101539.38
2018-01-21T07:52:53.755Z,101539.14
2018-01-21T07:55:22.067Z,101535.66
2018-01-21T07:57:50.381Z,101542.44
2018-01-21T08:00:19.462Z,101546.47
2018-01-21T08:02:47.776Z,101548.08
2018-01-21T08:05:16.085Z,101551.27
2018-01-21T08:07:44.403Z,101550.23
2018-01-21T08:10:13.505Z,101555.30
2018-01-21T08:12:42.586Z,101555.13
2018-01-21T08:15:10.888Z,101563.20
2018-01-21T08:17:39.181Z,101568.13
2018-01-21T08:20:08.289Z,101567.50
2018-01-21T08:22:37.367Z,101573.76
2018-01-21T08:25:05.682Z,101568.55
2018-01-21T08:27:34.008Z,101574.11
2018-01-21T08:30:02.311Z,101581.27
2018-01-21T08:32:31.382Z,101573.73
2018-01-21T08:35:05.109Z,101571.93
2018-01-21T08:37:38.964Z,101576.24
2018-01-21T08:40:12.796Z,101582.33
2018-01-21T08:42:41.097Z,101592.03
2018-01-21T08:45:09.421Z,101588.66
2018-01-21T08:47:37.715Z,101593.13
2018-01-21T08:50:06.012Z,101591.11
2018-01-21T08:52:34.317Z,101594.40
2018-01-21T08:55:02.634Z,101600.30
2018-01-21T08:57:31.696Z,101597.47
2018-01-21T09:00:00.118Z,101597.83
2018-01-21T09:02:29.179Z,101605.70
2018-01-21T09:04:58.207Z,101609.03
2018-01-21T09:07:26.522Z,101611.75
2018-01-21T09:09:54.799Z,101619.09
2018-01-21T09:12:23.106Z,101620.14
2018-01-21T09:14:51.408Z,101624.23
2018-01-21T09:17:19.734Z,101622.77
2018-01-21T09:19:48.050Z,101631.55
2018-01-21T09:22:16.347Z,101639.84
2018-01-21T09:24:46.266Z,101641.33
2018-01-21T09:27:14.574Z,101644.24
2018-01-21T09:29:43.631Z,101648.07
2018-01-21T09:32:11.990Z,101654.81
2018-01-21T09:34:40.312Z,101655.70
2018-01-21T09:37:08.637Z,101655.08
2018-01-21T09:39:36.941Z,101646.62
2018-01-21T09:42:05.233Z,101642.01
2018-01-21T09:44:33.552Z,101650.78
2018-01-21T09:47:01.876Z,101651.63
2018-01-21T09:49:30.165Z,101649.23
2018-01-21T09:51:58.463Z,101657.39
2018-01-21T09:54:26.761Z,101666.06
2018-01-21T09:56:55.391Z,101671.45
2018-01-21T09:59:24.514Z,101678.20
2018-01-21T10:01:52.817Z,101676.72
2018-01-21T10:04:21.125Z,101682.02
2018-01-21T10:06:49.920Z,101691.66
2018-01-21T10:09:18.259Z,101697.48
2018-01-21T10:11:46.550Z,101696.12
2018-01-21T10:14:14.890Z,101689.94
2018-01-21T10:16:44.010Z,101688.98
2018-01-21T10:19:12.300Z,101703.12
2018-01-21T10:21:40.881Z,101706.42
2018-01-21T10:24:09.268Z,101698.57
2018-01-21T10:26:37.560Z,101694.73
2018-01-21T10:29:05.860Z,101697.89
2018-01-21T10:31:34.157Z,101695.31
2018-01-21T10:34:02.486Z,101692.01
2018-01-21T10:36:30.818Z,101690.27
2018-01-21T10:38:59.215Z,101685.73
2018-01-21T10:41:27.530Z,101684.44
2018-01-21T10:43:55.815Z,101692.40
2018-01-21T10:46:24.114Z,101693.57
2018-01-21T10:48:52.421Z,101699.74
2018-01-21T10:51:20.751Z,101691.35
2018-01-21T10:53:49.066Z,101689.48
2018-01-21T10:56:17.385Z,101686.84
2018-01-21T10:58:46.467Z,101677.53
2018-01-21T11:01:14.764Z,101675.48
2018-01-21T11:03:43.067Z,101670.89
2018-01-21T11:06:12.122Z,101672.73
2018-01-21T11:08:40.463Z,101676.23
2018-01-21T11:11:08.759Z,101670.94
2018-01-21T11:13:37.062Z,101664.05
2018-01-21T11:16:05.363Z,101668.69
2018-01-21T11:18:33.651Z,101670.22
2018-01-21T11:21:02.001Z,101671.75
2018-01-21T11:23:30.353Z,101672.33
2018-01-21T11:25:58.707Z,101670.86
2018-01-21T11:28:27.783Z,101683.40
2018-01-21T11:30:56.079Z,101677.12
2018-01-21T11:33:24.369Z,101681.34
2018-01-21T11:35:53.507Z,101677.63
2018-01-21T11:38:21.803Z,101680.61
2018-01-21T11:40:50.107Z,101683.77
2018-01-21T11:43:18.400Z,101687.75
2018-01-21T11:45:46.710Z,101689.48
2018-01-21T11:48:15.009Z,101692.23
2018-01-21T11:50:43.385Z,101691.38
2018-01-21T11:53:11.717Z,101692.89
2018-01-21T11:55:40.011Z,101690.86
2018-01-21T11:58:08.293Z,101698.52
2018-01-21T12:00:36.600Z,101691.49
2018-01-21T12:03:04.893Z,101699.70
2018-01-21T12:05:33.177Z,101704.69
2018-01-21T12:08:01.580Z,101706.98
2018-01-21T12:10:29.871Z,101703.14
2018-01-21T12:12:58.293Z,101699.34
2018-01-21T12:15:27.379Z,101702.16
2018-01-21T12:17:55.663Z,101712.18
2018-01-21T12:20:23.960Z,101710.19
2018-01-21T12:22:53.053Z,101695.39
2018-01-21T12:25:22.120Z,101707.23
2018-01-21T12:27:50.668Z,101707.73
2018-01-21T12:30:18.977Z,101708.05
2018-01-21T12:32:47.261Z,101711.68
2018-01-21T12:35:15.923Z,101707.06
2018-01-21T12:37:44.235Z,101709.09
2018-01-21T12:40:12.547Z,101709.39
2018-01-21T12:42:40.847Z,101708.09
2018-01-21T12:45:09.912Z,101705.94
2018-01-21T12:47:38.224Z,101701.86
2018-01-21T12:50:06.543Z,101704.77
2018-01-21T12:52:34.843Z,101693.28
2018-01-21T12:55:03.129Z,101693.70
2018-01-21T12:57:31.418Z,101691.04
2018-01-21T12:59:59.705Z,101683.91
2018-01-21T13:02:28.086Z,101685.83
2018-01-21T13:04:56.460Z,101680.84
2018-01-21T13:07:24.757Z,101679.34
2018-01-21T13:09:53.050Z,101675.18
2018-01-21T13:12:22.668Z,101671.69
2018-01-21T13:14:51.722Z,101674.77
2018-01-21T13:17:20.778Z,101671.10
2018-01-21T13:19:49.072Z,101679.00
2018-01-21T13:22:17.451Z,101677.30
2018-01-21T13:24:45.757Z,101677.55
2018-01-21T13:27:14.048Z,101666.05
2018-01-21T13:29:42.373Z,101671.22
2018-01-21T13:32:11.434Z,101682.34
2018-01-21T13:34:39.734Z,101687.74
2018-01-21T13:37:08.015Z,101675.67
2018-01-21T13:39:36.317Z,101682.75
2018-01-21T13:42:05.381Z,101687.20
2018-01-21T13:44:33.669Z,101679.30
2018-01-21T13:47:01.949Z,101682.28
2018-01-21T13:49:30.261Z,101684.95
2018-01-21T13:51:59.312Z,101683.45
2018-01-21T13:54:27.724Z,101682.20
2018-01-21T13:56:56.033Z,101675.47
2018-01-21T13:59:24.310Z,101676.30
2018-01-21T14:01:53.394Z,101672.34
2018-01-21T14:04:22.254Z,101663.94
2018-01-21T14:06:50.545Z,101665.94
2018-01-21T14:09:18.853Z,101663.52
2018-01-21T14:11:47.898Z,101665.27
2018-01-21T14:14:16.180Z,101673.43
2018-01-21T14:16:45.396Z,101674.51
2018-01-21T14:19:13.742Z,101677.17
2018-01-21T14:21:42.026Z,101670.43
2018-01-21T14:24:10.331Z,101673.43
2018-01-21T14:26:38.620Z,101675.68
2018-01-21T14:29:06.899Z,101674.27
2018-01-21T14:31:35.186Z,101671.77
2018-01-21T14:34:03.473Z,101671.93
2018-01-21T14:36:31.766Z,101665.02
2018-01-21T14:39:00.072Z,101651.63
2018-01-21T14:41:29.110Z,101649.33
2018-01-21T14:43:57.403Z,101650.58
2018-01-21T14:46:25.694Z,101639.30
2018-01-21T14:48:53.987Z,101641.72
2018-01-21T14:51:22.314Z,101645.48
2018-01-21T14:53:50.586Z,101645.23
2018-01-21T14:56:18.941Z,101641.35
2018-01-21T14:58:48.798Z,101636.02
2018-01-21T15:01:17.090Z,101637.35
2018-01-21T15:03:45.372Z,101638.52
2018-01-21T15:06:13.666Z,101637.79
2018-01-21T15:08:41.954Z,101635.71
2018-01-21T15:11:10.241Z,101625.48
2018-01-21T15:13:38.544Z,101633.31
2018-01-21T15:16:06.840Z,101634.05
2018-01-21T15:18:35.938Z,101626.75
2018-01-21T15:21:04.222Z,101626.42
2018-01-21T15:23:33.275Z,101629.16
2018-01-21T15:26:01.646Z,101618.60
2018-01-21T15:28:29.956Z,101616.11
2018-01-21T15:30:58.245Z,101611.69
2018-01-21T15:33:26.534Z,101604.82
2018-01-21T15:35:54.842Z,101604.31
2018-01-21T15:38:23.232Z,101602.64
2018-01-21T15:40:51.590Z,101608.12
2018-01-21T15:43:20.646Z,101609.97
2018-01-21T15:45:48.950Z,101619.26
2018-01-21T15:48:18.030Z,101617.75
2018-01-21T15:50:46.333Z,101615.53
2018-01-21T15:53:14.654Z,101621.92
2018-01-21T15:55:43.038Z,101621.82
2018-01-21T15:58:11.330Z,101618.32
2018-01-21T16:00:39.610Z,101613.24
2018-01-21T16:03:07.892Z,101612.48
2018-01-21T16:05:36.175Z,101609.73
2018-01-21T16:08:04.454Z,101593.53
2018-01-21T16:10:32.762Z,101589.91
2018-01-21T16:13:01.129Z,101592.08
2018-01-21T16:15:29.391Z,101597.66
2018-01-21T16:17:57.737Z,101589.27
2018-01-21T16:20:26.646Z,101598.06
2018-01-21T16:22:55.704Z,101602.87
2018-01-21T16:25:23.994Z,101607.84
2018-01-21T16:27:52.310Z,101591.56
2018-01-21T16:30:21.426Z,101591.71
2018-01-21T16:32:49.722Z,101596.08
2018-01-21T16:35:18.026Z,101590.78
2018-01-21T16:38:04.034Z,101588.19
2018-01-21T16:40:32.354Z,101585.02
2018-01-21T16:43:00.742Z,101578.56
2018-01-21T16:45:29.030Z,101575.91
2018-01-21T16:47:57.344Z,101569.67
2018-01-21T16:50:25.632Z,101569.83
2018-01-21T16:52:53.952Z,101563.42
2018-01-21T16:55:22.261Z,101558.27
2018-01-21T16:57:50.567Z,101558.92
2018-01-21T17:00:18.877Z,101554.72
2018-01-21T17:02:47.193Z,101557.61
2018-01-21T17:05:15.478Z,101551.03
2018-01-21T17:07:43.765Z,101550.44
2018-01-21T17:10:12.068Z,101547.94
2018-01-21T17:12:40.394Z,101550.59
2018-01-21T17:15:09.435Z,101554.00
2018-01-21T17:17:37.710Z,101550.17
2018-01-21T17:20:06.012Z,101544.45
2018-01-21T17:22:34.300Z,101538.15
2018-01-21T17:25:02.586Z,101540.83
2018-01-21T17:27:30.966Z,101536.27
2018-01-21T17:29:59.260Z,101529.78
2018-01-21T17:32:27.546Z,101523.47
2018-01-21T17:34:55.864Z,101523.20
2018-01-21T17:37:24.152Z,101512.52
2018-01-21T17:39:52.530Z,101508.44
2018-01-21T17:42:20.840Z,101500.80
2018-01-21T17:44:49.144Z,101500.95
2018-01-21T17:47:17.516Z,101497.39
2018-01-21T17:49:45.805Z,101493.32
2018-01-21T17:52:14.176Z,101489.18
2018-01-21T17:54:42.650Z,101487.04
2018-01-21T17:57:10.949Z,101486.95
2018-01-21T17:59:39.314Z,101490.43
2018-01-21T18:02:07.625Z,101483.71
2018-01-21T18:04:35.914Z,101477.67
2018-01-21T18:07:04.311Z,101471.11
2018-01-21T18:09:33.375Z,101470.20
2018-01-21T18:12:02.440Z,101479.57
2018-01-21T18:14:30.730Z,101490.84
2018-01-21T18:16:59.037Z,101485.45
2018-01-21T18:19:27.343Z,101493.00
2018-01-21T18:21:55.679Z,101481.97
2018-01-21T18:24:23.973Z,101488.92
2018-01-21T18:26:52.270Z,101487.77
2018-01-21T18:29:20.584Z,101481.87
2018-01-21T18:31:49.644Z,101473.65
2018-01-21T18:34:17.981Z,101466.91
2018-01-21T18:36:46.297Z,101467.66
2018-01-21T18:39:15.375Z,101463.28
2018-01-21T18:41:43.685Z,101458.21
2018-01-21T18:44:13.051Z,101456.31
2018-01-21T18:46:42.674Z,101458.28
2018-01-21T18:49:13.159Z,101435.40
2018-01-21T18:51:42.500Z,101437.97
2018-01-21T18:54:10.903Z,101428.77
2018-01-21T18:56:39.294Z,101415.83
2018-01-21T18:59:07.952Z,101422.12
2018-01-21T19:01:36.258Z,101428.84
2018-01-21T19:04:04.620Z,101421.12
2018-01-21T19:06:33.513Z,101414.76
2018-01-21T19:09:01.905Z,101405.69
2018-01-21T19:11:30.199Z,101389.61
2018-01-21T19:13:58.552Z,101388.77
2018-01-21T19:16:26.820Z,101364.66
2018-01-21T19:18:55.884Z,101364.31
2018-01-21T19:21:24.186Z,101369.45
2018-01-21T19:23:52.560Z,101379.58
2018-01-21T19:26:20.907Z,101374.36
2018-01-21T19:28:49.241Z,101387.89
2018-01-21T19:31:19.181Z,101388.72
2018-01-21T19:33:48.366Z,101391.38
2018-01-21T19:36:16.741Z,101399.50
2018-01-21T19:38:50.586Z,101387.64
2018-01-21T19:44:20.788Z,101373.13
2018-01-21T19:46:49.900Z,101360.19
2018-01-21T19:49:18.216Z,101363.15
2018-01-21T19:51:46.576Z,101354.05
2018-01-21T19:54:14.944Z,101357.45
2018-01-21T19:56:43.296Z,101349.90
2018-01-21T19:59:11.620Z,101363.75
2018-01-21T20:01:39.981Z,101356.52
2018-01-21T20:04:08.300Z,101338.61
2018-01-21T20:06:36.681Z,101325.02
2018-01-21T20:09:05.591Z,101311.50
2018-01-21T20:11:33.984Z,101288.41
2018-01-21T20:14:02.354Z,101278.29
2018-01-21T20:16:30.726Z,101275.97
2018-01-21T20:18:59.054Z,101286.09
2018-01-21T20:21:27.689Z,101273.56
2018-01-21T20:23:56.938Z,101254.65
2018-01-21T20:26:26.101Z,101272.66
2018-01-21T20:28:54.408Z,101273.56
2018-01-21T20:31:22.711Z,101261.55
2018-01-21T20:33:51.324Z,101274.84
2018-01-21T20:36:19.975Z,101278.16
2018-01-21T20:38:49.436Z,101272.19
2018-01-21T20:41:18.639Z,101253.11
2018-01-21T20:43:47.660Z,101252.94
2018-01-21T20:46:17.734Z,101236.13
2018-01-21T20:48:47.028Z,101223.36
2018-01-21T20:51:22.661Z,101204.94
2018-01-21T20:53:56.635Z,101205.28
2018-01-21T20:56:25.048Z,101200.64
2018-01-21T20:58:53.441Z,101193.77
2018-01-21T21:01:21.776Z,101200.55
2018-01-21T21:03:50.182Z,101199.09
2018-01-21T21:06:18.593Z,101200.82
2018-01-21T21:08:49.245Z,101188.56
2018-01-21T21:11:17.613Z,101196.84
2018-01-21T21:13:47.433Z,101197.33
2018-01-21T21:16:16.070Z,101195.02
2018-01-21T21:18:45.467Z,101181.34
2018-01-21T21:21:14.536Z,101175.45
2018-01-21T21:23:43.868Z,101179.74
2018-01-21T21:26:12.369Z,101184.73
2018-01-21T21:28:40.964Z,101177.34
2018-01-21T21:31:09.557Z,101162.34
2018-01-21T21:33:38.217Z,101149.16
2018-01-21T21:36:06.692Z,101145.20
2018-01-21T21:38:36.129Z,101144.53
2018-01-21T21:41:04.824Z,101137.07
2018-01-21T21:43:33.192Z,101131.02
2018-01-21T21:46:01.554Z,101136.97
2018-01-21T21:48:30.697Z,101147.69
2018-01-21T21:50:59.025Z,101141.89
2018-01-21T21:53:28.093Z,101133.84
2018-01-21T21:55:56.427Z,101131.44
2018-01-21T21:58:25.285Z,101118.93
2018-01-21T22:00:53.626Z,101102.39
2018-01-21T22:03:21.985Z,101089.82
2018-01-21T22:05:50.293Z,101076.74
2018-01-21T22:08:18.621Z,101077.71
2018-01-21T22:10:47.753Z,101089.83
2018-01-21T22:13:18.450Z,101091.80
2018-01-21T22:15:47.587Z,101083.52
2018-01-21T22:18:15.919Z,101077.17
2018-01-21T22:20:44.247Z,101081.13
2018-01-21T22:23:12.605Z,101074.48
2018-01-21T22:25:40.951Z,101063.83
2018-01-21T22:28:09.292Z,101054.47
2018-01-21T22:30:37.692Z,101053.38
2018-01-21T22:33:06.025Z,101048.24
2018-01-21T22:35:35.199Z,101043.45
2018-01-21T22:38:04.369Z,101042.93
2018-01-21T22:40:32.703Z,101033.94
2018-01-21T22:43:01.742Z,101039.23
2018-01-21T22:45:30.767Z,101021.52
2018-01-21T22:47:59.971Z,101022.58
2018-01-21T22:50:28.313Z,101035.13
2018-01-21T22:52:57.481Z,101033.14
2018-01-21T22:55:25.839Z,101037.11
2018-01-21T22:57:54.286Z,101032.88
2018-01-21T23:00:22.993Z,101021.88
2018-01-21T23:02:51.384Z,101016.29
2018-01-21T23:05:19.723Z,101010.09
2018-01-21T23:07:49.754Z,101006.70
2018-01-21T23:10:18.879Z,100974.28
2018-01-21T23:12:47.227Z,100969.05
2018-01-21T23:15:15.555Z,100943.83
2018-01-21T23:17:43.863Z,100934.16
2018-01-21T23:20:12.162Z,100908.70
2018-01-21T23:22:41.029Z,100901.79
2018-01-21T23:25:10.407Z,100890.78
2018-01-21T23:27:38.808Z,100888.36
2018-01-21T23:30:07.102Z,100884.32
2018-01-21T23:32:35.388Z,100887.87
2018-01-21T23:35:03.705Z,100896.87
2018-01-21T23:37:32.755Z,100892.39
2018-01-21T23:40:01.063Z,100895.37
2018-01-21T23:42:29.456Z,100903.53
2018-01-21T23:44:57.951Z,100890.73
2018-01-21T23:47:26.283Z,100880.81
2018-01-21T23:49:54.587Z,100858.76
2018-01-21T23:52:22.942Z,100849.45
2018-01-21T23:54:51.234Z,100846.48
2018-01-21T23:57:19.550Z,100853.66
2018-01-21T23:59:47.937Z,100865.13
